createdAt,value
2022-10-01T00:01:30.322Z,32.48
2022-10-01T00:03:58.778Z,32.78
2022-10-01T00:06:26.852Z,32.74
2022-10-01T00:08:55.144Z,33.04
2022-10-01T00:11:25.110Z,32.84
2022-10-01T00:13:54.347Z,32.94
2022-10-01T00:16:25.517Z,32.96
2022-10-01T00:18:55.798Z,32.71
2022-10-01T00:21:25.896Z,32.74
2022-10-01T00:23:56.072Z,32.73
2022-10-01T00:26:28.258Z,32.71
2022-10-01T00:28:56.799Z,31.21
2022-10-01T00:31:25.779Z,32.62
2022-10-01T00:33:55.978Z,32.55
2022-10-01T00:36:24.421Z,32.91
2022-10-01T00:38:52.487Z,32.56
2022-10-01T00:41:20.816Z,32.81
2022-10-01T00:43:53.679Z,32.25
2022-10-01T00:46:25.517Z,32.40
2022-10-01T00:48:59.219Z,32.24
2022-10-01T00:51:30.967Z,32.56
2022-10-01T00:54:02.844Z,32.17
2022-10-01T00:56:31.604Z,32.40
2022-10-01T00:59:00.338Z,32.67
2022-10-01T01:01:28.886Z,32.76
2022-10-01T01:03:59.118Z,32.49
2022-10-01T01:06:27.201Z,32.84
2022-10-01T01:08:55.932Z,33.03
2022-10-01T01:11:30.577Z,31.92
2022-10-01T01:14:03.851Z,32.14
2022-10-01T01:16:35.589Z,32.66
2022-10-01T01:19:10.600Z,32.03
2022-10-01T01:21:42.712Z,32.30
2022-10-01T01:24:35.330Z,32.03
2022-10-01T01:27:16.497Z,31.69
2022-10-01T01:29:52.521Z,32.04
2022-10-01T01:32:27.761Z,31.90
2022-10-01T01:35:02.389Z,32.48
2022-10-01T01:37:34.831Z,32.35
2022-10-01T01:40:05.201Z,32.33
2022-10-01T01:42:36.842Z,32.40
2022-10-01T01:45:09.971Z,32.38
2022-10-01T01:47:39.836Z,32.35
2022-10-01T01:50:08.776Z,32.72
2022-10-01T01:52:37.510Z,32.55
2022-10-01T01:55:08.572Z,32.56
2022-10-01T01:57:39.304Z,32.37
2022-10-01T02:00:11.563Z,32.57
2022-10-01T02:02:41.732Z,32.64
2022-10-01T02:05:11.536Z,32.61
2022-10-01T02:08:14.346Z,32.13
2022-10-01T02:10:55.821Z,31.83
2022-10-01T02:13:31.151Z,32.21
2022-10-01T02:16:06.281Z,32.12
2022-10-01T02:18:40.616Z,31.90
2022-10-01T02:21:12.442Z,32.50
2022-10-01T02:23:45.422Z,32.18
2022-10-01T02:26:17.626Z,32.25
2022-10-01T02:28:47.787Z,32.64
2022-10-01T02:31:19.191Z,32.52
2022-10-01T02:33:48.692Z,33.01
2022-10-01T02:36:17.646Z,33.21
2022-10-01T02:38:47.087Z,32.91
2022-10-01T02:41:17.431Z,32.93
2022-10-01T02:43:51.786Z,32.72
2022-10-01T02:46:28.626Z,32.59
2022-10-01T02:48:57.097Z,33.36
2022-10-01T02:51:34.309Z,32.84
2022-10-01T02:54:07.367Z,33.08
2022-10-01T02:56:56.275Z,33.47
2022-10-01T02:59:24.617Z,33.43
2022-10-01T03:01:54.432Z,33.30
2022-10-01T03:04:22.610Z,33.53
2022-10-01T03:06:50.924Z,33.58
2022-10-01T03:09:19.248Z,33.43
2022-10-01T03:11:47.420Z,33.42
2022-10-01T03:14:15.598Z,33.59
2022-10-01T03:16:43.970Z,33.69
2022-10-01T03:19:13.662Z,33.25
2022-10-01T03:21:41.793Z,33.41
2022-10-01T03:24:10.369Z,33.44
2022-10-01T03:26:38.848Z,33.37
2022-10-01T03:29:07.202Z,33.72
2022-10-01T03:31:35.953Z,33.53
2022-10-01T03:34:04.613Z,33.66
2022-10-01T03:36:34.229Z,33.28
2022-10-01T03:39:02.647Z,33.75
2022-10-01T03:41:30.994Z,33.93
2022-10-01T03:44:00.624Z,33.91
2022-10-01T03:46:29.214Z,34.00
2022-10-01T03:49:01.036Z,34.03
2022-10-01T03:51:29.353Z,34.29
2022-10-01T03:53:59.696Z,33.96
2022-10-01T03:56:27.877Z,34.53
2022-10-01T03:58:56.023Z,34.72
2022-10-01T04:01:24.404Z,34.74
2022-10-01T04:03:52.716Z,34.53
2022-10-01T04:06:20.948Z,34.61
2022-10-01T04:08:50.415Z,34.75
2022-10-01T04:11:19.923Z,34.36
2022-10-01T04:13:48.263Z,34.89
2022-10-01T04:16:16.921Z,35.08
2022-10-01T04:18:45.143Z,34.77
2022-10-01T04:21:15.405Z,34.80
2022-10-01T04:23:43.823Z,34.88
2022-10-01T04:26:11.973Z,35.01
2022-10-01T04:28:41.473Z,35.10
2022-10-01T04:31:28.062Z,35.34
2022-10-01T04:33:57.489Z,35.31
2022-10-01T04:36:27.040Z,35.28
2022-10-01T04:39:00.849Z,35.38
2022-10-01T04:41:31.901Z,35.39
2022-10-01T04:44:01.887Z,35.24
2022-10-01T04:46:30.873Z,35.54
2022-10-01T04:48:59.443Z,35.71
2022-10-01T04:51:27.444Z,35.70
2022-10-01T04:53:55.695Z,35.26
2022-10-01T04:56:23.928Z,35.03
2022-10-01T04:58:51.990Z,34.96
2022-10-01T05:01:21.541Z,34.87
2022-10-01T05:03:49.899Z,35.26
2022-10-01T05:06:18.087Z,35.13
2022-10-01T05:08:46.088Z,35.01
2022-10-01T05:11:14.295Z,35.05
2022-10-01T05:13:42.404Z,34.97
2022-10-01T05:16:11.893Z,34.69
2022-10-01T05:18:41.667Z,34.11
2022-10-01T05:21:11.771Z,34.06
2022-10-01T05:23:39.957Z,34.08
2022-10-01T05:26:08.518Z,33.86
2022-10-01T05:28:37.226Z,33.51
2022-10-01T05:31:05.800Z,33.46
2022-10-01T05:33:34.598Z,33.28
2022-10-01T05:36:05.331Z,33.37
2022-10-01T05:38:36.275Z,33.65
2022-10-01T05:41:05.035Z,33.35
2022-10-01T05:43:33.333Z,33.41
2022-10-01T05:46:02.768Z,33.22
2022-10-01T05:48:36.949Z,33.18
2022-10-01T05:51:08.392Z,32.94
2022-10-01T05:53:38.162Z,33.27
2022-10-01T05:56:07.011Z,33.34
2022-10-01T05:58:35.592Z,33.32
2022-10-01T06:01:04.244Z,33.32
2022-10-01T06:03:32.566Z,33.54
2022-10-01T06:06:00.920Z,33.15
2022-10-01T06:08:30.582Z,33.08
2022-10-01T06:11:02.568Z,32.64
2022-10-01T06:13:32.126Z,33.25
2022-10-01T06:16:00.367Z,33.06
2022-10-01T06:18:28.561Z,33.05
2022-10-01T06:20:59.423Z,32.34
2022-10-01T06:23:27.556Z,32.68
2022-10-01T06:25:57.178Z,32.11
2022-10-01T06:28:25.503Z,32.35
2022-10-01T06:30:54.021Z,32.46
2022-10-01T06:33:22.230Z,32.47
2022-10-01T06:35:51.740Z,32.25
2022-10-01T06:38:21.656Z,32.22
2022-10-01T06:40:54.715Z,31.77
2022-10-01T06:43:24.761Z,32.10
2022-10-01T06:45:53.187Z,32.28
2022-10-01T06:48:21.976Z,32.11
2022-10-01T06:50:52.365Z,31.67
2022-10-01T06:53:20.485Z,32.18
2022-10-01T06:55:51.061Z,32.18
2022-10-01T06:58:21.127Z,32.08
2022-10-01T07:00:51.535Z,31.64
2022-10-01T07:03:21.226Z,31.95
2022-10-01T07:05:49.763Z,32.07
2022-10-01T07:08:18.154Z,31.88
2022-10-01T07:10:46.777Z,31.70
2022-10-01T07:13:16.541Z,31.72
2022-10-01T07:15:45.466Z,31.70
2022-10-01T07:18:15.441Z,31.41
2022-10-01T07:20:43.844Z,31.69
2022-10-01T07:23:13.668Z,31.37
2022-10-01T07:25:51.394Z,31.38
2022-10-01T07:28:24.099Z,30.43
2022-10-01T07:30:59.728Z,29.83
2022-10-01T07:33:29.968Z,30.42
2022-10-01T07:36:01.576Z,29.91
2022-10-01T07:38:29.986Z,30.43
2022-10-01T07:40:59.101Z,30.42
2022-10-01T07:43:27.444Z,30.42
2022-10-01T07:45:58.277Z,30.27
2022-10-01T07:48:26.828Z,29.65
2022-10-01T07:50:57.947Z,29.49
2022-10-01T07:53:26.427Z,29.75
2022-10-01T07:55:54.673Z,30.14
2022-10-01T07:58:24.283Z,29.82
2022-10-01T08:00:56.309Z,29.84
2022-10-01T08:03:24.518Z,29.83
2022-10-01T08:05:54.865Z,29.39
2022-10-01T08:08:24.671Z,29.14
2022-10-01T08:10:52.906Z,29.32
2022-10-01T08:13:24.989Z,29.00
2022-10-01T08:15:54.997Z,29.08
2022-10-01T08:18:23.852Z,29.01
2022-10-01T08:20:52.597Z,28.99
2022-10-01T08:23:21.733Z,28.87
2022-10-01T08:25:51.216Z,28.93
2022-10-01T08:28:19.743Z,28.69
2022-10-01T08:30:48.265Z,28.68
2022-10-01T08:33:16.457Z,29.02
2022-10-01T08:35:44.975Z,28.94
2022-10-01T08:38:13.692Z,29.25
2022-10-01T08:40:47.536Z,28.61
2022-10-01T08:43:30.308Z,28.21
2022-10-01T08:46:01.807Z,28.04
2022-10-01T08:48:54.785Z,28.33
2022-10-01T08:51:29.040Z,27.91
2022-10-01T08:53:59.502Z,28.08
2022-10-01T08:56:31.109Z,27.91
2022-10-01T08:59:03.367Z,27.85
2022-10-01T09:01:31.700Z,27.84
2022-10-01T09:04:00.647Z,27.62
2022-10-01T09:06:29.584Z,27.36
2022-10-01T09:09:15.269Z,27.13
2022-10-01T09:11:56.063Z,27.69
2022-10-01T09:14:36.174Z,27.43
2022-10-01T09:17:07.431Z,27.70
2022-10-01T09:19:54.631Z,26.61
2022-10-01T09:22:31.886Z,26.65
2022-10-01T09:25:07.276Z,26.38
2022-10-01T09:27:35.888Z,27.08
2022-10-01T09:30:08.399Z,26.63
2022-10-01T09:32:40.976Z,26.27
2022-10-01T09:35:21.146Z,25.84
2022-10-01T09:37:54.795Z,26.49
2022-10-01T09:40:28.276Z,26.33
2022-10-01T09:42:57.634Z,27.17
2022-10-01T09:45:27.570Z,26.79
2022-10-01T09:47:59.905Z,26.68
2022-10-01T09:50:32.672Z,26.56
2022-10-01T09:53:01.555Z,27.41
2022-10-01T09:55:32.919Z,27.33
2022-10-01T09:58:04.672Z,27.96
2022-10-01T10:00:34.793Z,28.06
2022-10-01T10:03:03.133Z,28.35
2022-10-01T10:05:40.966Z,28.58
2022-10-01T10:08:13.747Z,28.10
2022-10-01T10:10:50.835Z,28.29
2022-10-01T10:13:21.721Z,28.53
2022-10-01T10:15:55.072Z,28.52
2022-10-01T10:18:29.100Z,28.13
2022-10-01T10:20:57.922Z,28.22
2022-10-01T10:23:29.161Z,28.79
2022-10-01T10:26:01.067Z,28.76
2022-10-01T10:28:30.241Z,28.71
2022-10-01T10:30:59.893Z,28.63
2022-10-01T10:33:28.414Z,28.59
2022-10-01T10:36:02.190Z,27.76
2022-10-01T10:38:32.978Z,27.56
2022-10-01T10:41:01.743Z,27.79
2022-10-01T10:43:33.189Z,27.54
2022-10-01T10:46:03.051Z,27.93
2022-10-01T10:48:33.724Z,27.71
2022-10-01T10:51:03.562Z,28.31
2022-10-01T10:53:41.788Z,27.87
2022-10-01T10:56:21.169Z,27.56
2022-10-01T10:58:50.251Z,28.26
2022-10-01T11:01:26.510Z,27.74
2022-10-01T11:03:57.818Z,28.71
2022-10-01T11:06:26.304Z,28.38
2022-10-01T11:09:00.847Z,26.94
2022-10-01T11:11:47.383Z,25.95
2022-10-01T11:14:26.882Z,26.07
2022-10-01T11:17:13.055Z,25.84
2022-10-01T11:19:53.042Z,25.00
2022-10-01T11:22:32.901Z,24.86
2022-10-01T11:25:09.869Z,25.54
2022-10-01T11:27:46.452Z,25.10
2022-10-01T11:30:19.484Z,25.77
2022-10-01T11:32:55.023Z,25.68
2022-10-01T11:35:31.237Z,26.01
2022-10-01T11:38:23.483Z,26.31
2022-10-01T11:40:55.481Z,26.07
2022-10-01T11:43:26.904Z,26.17
2022-10-01T11:45:57.658Z,26.11
2022-10-01T11:48:32.664Z,26.08
2022-10-01T11:51:04.433Z,26.17
2022-10-01T11:53:38.062Z,26.05
2022-10-01T11:56:26.442Z,25.70
2022-10-01T11:58:58.546Z,25.63
2022-10-01T12:01:31.141Z,25.64
2022-10-01T12:04:08.779Z,25.48
2022-10-01T12:06:41.982Z,25.96
2022-10-01T12:09:15.636Z,25.90
2022-10-01T12:11:48.090Z,26.01
2022-10-01T12:14:20.068Z,26.27
2022-10-01T12:16:52.874Z,26.22
2022-10-01T12:19:25.250Z,26.32
2022-10-01T12:21:57.868Z,26.30
2022-10-01T12:24:29.540Z,26.96
2022-10-01T12:27:08.889Z,26.34
2022-10-01T12:29:45.415Z,27.01
2022-10-01T12:32:20.475Z,27.25
2022-10-01T12:34:58.529Z,27.22
2022-10-01T12:37:36.710Z,27.28
2022-10-01T12:40:13.686Z,27.06
2022-10-01T12:42:54.289Z,27.13
2022-10-01T12:45:29.863Z,27.78
2022-10-01T12:48:04.413Z,28.18
2022-10-01T12:50:42.211Z,28.09
2022-10-01T12:53:22.469Z,28.04
2022-10-01T12:55:56.734Z,28.84
2022-10-01T12:58:51.274Z,28.44
2022-10-01T13:01:28.186Z,28.78
2022-10-01T13:04:14.121Z,28.05
2022-10-01T13:06:53.040Z,28.49
2022-10-01T13:09:25.270Z,28.76
2022-10-01T13:12:03.171Z,28.82
2022-10-01T13:14:33.258Z,29.49
2022-10-01T13:17:06.037Z,29.01
2022-10-01T13:19:40.770Z,29.23
2022-10-01T13:22:16.365Z,28.70
2022-10-01T13:24:47.001Z,28.89
2022-10-01T13:27:19.689Z,28.21
2022-10-01T13:29:53.499Z,27.93
2022-10-01T13:32:28.677Z,27.44
2022-10-01T13:34:58.105Z,27.87
2022-10-01T13:37:36.520Z,26.83
2022-10-01T13:40:05.975Z,27.93
2022-10-01T13:42:43.206Z,27.41
2022-10-01T13:45:23.836Z,27.47
2022-10-01T13:47:52.418Z,28.60
2022-10-01T13:50:23.905Z,28.44
2022-10-01T13:52:54.128Z,28.61
2022-10-01T13:55:27.896Z,27.99
2022-10-01T13:58:06.122Z,28.01
2022-10-01T14:00:34.694Z,29.13
2022-10-01T14:03:06.198Z,29.14
2022-10-01T14:05:38.082Z,29.04
2022-10-01T14:08:15.740Z,28.92
2022-10-01T14:11:06.325Z,29.23
2022-10-01T14:13:55.653Z,29.13
2022-10-01T14:16:23.983Z,29.17
2022-10-01T14:18:52.746Z,29.22
2022-10-01T14:21:34.030Z,28.34
2022-10-01T14:24:10.378Z,28.37
2022-10-01T14:26:42.553Z,28.29
2022-10-01T14:29:18.925Z,27.82
2022-10-01T14:31:56.361Z,27.87
2022-10-01T14:34:34.184Z,27.83
2022-10-01T14:37:02.486Z,28.22
2022-10-01T14:39:33.429Z,27.74
2022-10-01T14:42:16.461Z,27.00
2022-10-01T14:44:47.304Z,27.53
2022-10-01T14:47:20.251Z,27.01
2022-10-01T14:49:49.188Z,27.77
2022-10-01T14:52:22.907Z,27.05
2022-10-01T14:54:58.959Z,26.87
2022-10-01T14:57:31.655Z,26.96
2022-10-01T15:00:02.748Z,27.19
2022-10-01T15:02:31.008Z,27.47
2022-10-01T15:04:59.376Z,27.54
2022-10-01T15:07:33.230Z,27.36
2022-10-01T15:10:09.490Z,27.02
2022-10-01T15:12:40.744Z,27.13
2022-10-01T15:15:20.101Z,27.04
2022-10-01T15:17:48.603Z,27.55
2022-10-01T15:20:17.460Z,27.46
2022-10-01T15:22:48.065Z,27.18
2022-10-01T15:25:21.095Z,27.13
2022-10-01T15:27:50.277Z,27.43
2022-10-01T15:30:19.704Z,27.63
2022-10-01T15:32:49.126Z,27.92
2022-10-01T15:35:20.256Z,27.30
2022-10-01T15:37:50.455Z,28.09
2022-10-01T15:40:27.471Z,27.16
2022-10-01T15:43:14.479Z,27.48
2022-10-01T15:45:42.955Z,27.91
2022-10-01T15:48:29.340Z,27.14
2022-10-01T15:51:01.196Z,28.03
2022-10-01T15:53:29.786Z,28.34
2022-10-01T15:56:00.296Z,27.98
2022-10-01T15:58:32.020Z,28.55
2022-10-01T16:01:03.054Z,28.33
2022-10-01T16:03:33.588Z,28.77
2022-10-01T16:06:02.903Z,28.60
2022-10-01T16:08:34.860Z,28.88
2022-10-01T16:11:18.137Z,28.23
2022-10-01T16:13:47.103Z,29.26
2022-10-01T16:16:21.935Z,29.08
2022-10-01T16:18:54.325Z,28.87
2022-10-01T16:21:23.321Z,29.34
2022-10-01T16:23:53.098Z,29.79
2022-10-01T16:26:40.249Z,28.50
2022-10-01T16:29:21.126Z,28.39
2022-10-01T16:31:49.410Z,29.13
2022-10-01T16:34:19.600Z,28.90
2022-10-01T16:36:47.833Z,28.94
2022-10-01T16:39:16.242Z,29.48
2022-10-01T16:42:01.386Z,29.16
2022-10-01T16:44:35.599Z,29.40
2022-10-01T16:47:03.954Z,29.46
2022-10-01T16:49:32.016Z,29.40
2022-10-01T16:52:00.195Z,29.50
2022-10-01T16:54:28.919Z,29.80
2022-10-01T16:57:00.374Z,29.67
2022-10-01T16:59:28.285Z,28.40
2022-10-01T17:01:57.675Z,30.00
2022-10-01T17:04:30.366Z,29.93
2022-10-01T17:07:01.550Z,29.84
2022-10-01T17:09:29.587Z,29.90
2022-10-01T17:11:59.147Z,30.22
2022-10-01T17:14:27.938Z,30.09
2022-10-01T17:16:56.341Z,29.99
2022-10-01T17:19:24.700Z,30.18
2022-10-01T17:21:53.347Z,30.44
2022-10-01T17:24:21.444Z,30.51
2022-10-01T17:26:49.727Z,30.63
2022-10-01T17:29:19.440Z,29.98
2022-10-01T17:31:53.543Z,30.28
2022-10-01T17:34:22.281Z,30.81
2022-10-01T17:36:50.753Z,30.59
2022-10-01T17:39:18.878Z,30.87
2022-10-01T17:41:47.375Z,30.77
2022-10-01T17:44:15.482Z,31.22
2022-10-01T17:46:45.308Z,31.12
2022-10-01T17:49:14.685Z,31.43
2022-10-01T17:51:42.966Z,31.24
2022-10-01T17:54:11.445Z,31.27
2022-10-01T17:56:40.871Z,31.34
2022-10-01T17:59:09.117Z,31.69
2022-10-01T18:01:37.562Z,31.79
2022-10-01T18:04:07.220Z,30.59
2022-10-01T18:06:35.932Z,31.39
2022-10-01T18:09:04.484Z,31.07
2022-10-01T18:11:32.920Z,31.25
2022-10-01T18:14:01.237Z,31.15
2022-10-01T18:16:30.194Z,30.65
2022-10-01T18:21:51.212Z,30.10
2022-10-01T18:24:19.757Z,30.03
2022-10-01T18:26:48.102Z,29.22
2022-10-01T18:29:18.792Z,28.57
2022-10-01T18:31:47.103Z,29.06
2022-10-01T18:34:19.665Z,28.68
2022-10-01T18:36:55.234Z,28.52
2022-10-01T18:39:28.120Z,28.59
2022-10-01T18:41:57.903Z,28.91
2022-10-01T18:44:26.816Z,28.71
2022-10-01T18:47:04.902Z,28.34
2022-10-01T18:49:49.106Z,28.34
2022-10-01T18:52:25.503Z,28.74
2022-10-01T18:55:05.506Z,28.85
2022-10-01T18:57:46.375Z,28.97
2022-10-01T19:00:16.262Z,29.92
2022-10-01T19:02:54.261Z,29.29
2022-10-01T19:05:50.103Z,28.97
2022-10-01T19:08:29.933Z,29.47
2022-10-01T19:11:04.891Z,29.64
2022-10-01T19:13:39.899Z,30.45
2022-10-01T19:16:18.143Z,30.56
2022-10-01T19:18:59.036Z,30.76
2022-10-01T19:21:32.850Z,31.15
2022-10-01T19:24:20.528Z,31.15
2022-10-01T19:26:54.001Z,32.26
2022-10-01T19:29:34.162Z,31.97
2022-10-01T19:32:04.348Z,32.18
2022-10-01T19:34:35.890Z,32.07
2022-10-01T19:37:07.955Z,32.22
2022-10-01T19:39:39.801Z,31.89
2022-10-01T19:42:11.678Z,32.49
2022-10-01T19:44:44.351Z,31.77
2022-10-01T19:47:29.678Z,31.66
2022-10-01T19:50:01.756Z,31.98
2022-10-01T19:52:34.560Z,32.02
2022-10-01T19:55:07.029Z,32.23
2022-10-01T19:57:39.269Z,32.63
2022-10-01T20:00:17.700Z,31.70
2022-10-01T20:02:52.069Z,31.82
2022-10-01T20:05:22.962Z,31.91
2022-10-01T20:08:00.709Z,31.72
2022-10-01T20:10:38.341Z,31.86
2022-10-01T20:13:27.550Z,31.54
2022-10-01T20:16:01.225Z,31.71
2022-10-01T20:18:35.267Z,31.78
2022-10-01T20:21:12.644Z,31.57
2022-10-01T20:23:46.946Z,31.78
2022-10-01T20:26:25.006Z,30.97
2022-10-01T20:29:11.603Z,30.66
2022-10-01T20:31:43.906Z,30.82
2022-10-01T20:34:19.501Z,30.62
2022-10-01T20:36:52.618Z,30.86
2022-10-01T20:39:26.283Z,30.79
2022-10-01T20:41:56.365Z,30.93
2022-10-01T20:44:27.915Z,30.84
2022-10-01T20:47:00.327Z,30.86
2022-10-01T20:49:32.406Z,31.34
2022-10-01T20:52:05.485Z,31.48
2022-10-01T20:54:37.392Z,31.58
2022-10-01T20:57:10.862Z,31.47
2022-10-01T20:59:42.178Z,31.54
2022-10-01T21:02:24.765Z,31.33
2022-10-01T21:04:57.505Z,31.90
2022-10-01T21:07:31.619Z,31.91
2022-10-01T21:10:03.393Z,32.11
2022-10-01T21:12:37.092Z,31.92
2022-10-01T21:15:07.448Z,32.40
2022-10-01T21:17:42.205Z,32.08
2022-10-01T21:20:21.441Z,32.04
2022-10-01T21:22:59.370Z,32.11
2022-10-01T21:25:38.552Z,32.03
2022-10-01T21:28:21.221Z,31.76
2022-10-01T21:31:00.109Z,31.87
2022-10-01T21:33:32.944Z,32.04
2022-10-01T21:36:04.187Z,32.49
2022-10-01T21:38:35.245Z,32.66
2022-10-01T21:41:36.598Z,31.71
2022-10-01T21:44:25.264Z,31.87
2022-10-01T21:46:58.249Z,32.44
2022-10-01T21:49:34.476Z,32.46
2022-10-01T21:52:11.736Z,32.07
2022-10-01T21:55:00.926Z,31.49
2022-10-01T21:57:40.940Z,31.97
2022-10-01T22:00:19.088Z,32.00
2022-10-01T22:03:06.347Z,31.52
2022-10-01T22:05:38.813Z,31.93
2022-10-01T22:08:35.716Z,31.44
2022-10-01T22:11:05.960Z,32.61
2022-10-01T22:13:36.398Z,32.63
2022-10-01T22:16:09.801Z,32.48
2022-10-01T22:18:41.769Z,32.67
2022-10-01T22:21:13.275Z,32.78
2022-10-01T22:23:45.161Z,32.81
2022-10-01T22:26:16.546Z,33.05
2022-10-01T22:28:48.617Z,33.10
2022-10-01T22:31:21.181Z,32.90
2022-10-01T22:33:53.858Z,32.93
2022-10-01T22:36:25.996Z,33.18
2022-10-01T22:38:57.393Z,33.36
2022-10-01T22:41:29.861Z,33.34
2022-10-01T22:43:58.434Z,33.69
2022-10-01T22:46:46.652Z,32.95
2022-10-01T22:49:24.140Z,33.34
2022-10-01T22:52:01.895Z,33.16
2022-10-01T22:54:36.507Z,33.23
2022-10-01T22:57:13.962Z,33.76
2022-10-01T22:59:49.250Z,33.71
2022-10-01T23:02:26.255Z,33.42
2022-10-01T23:05:07.372Z,33.22
2022-10-01T23:07:42.405Z,33.23
2022-10-01T23:10:15.398Z,33.81
2022-10-01T23:13:01.296Z,33.68
2022-10-01T23:15:36.050Z,33.37
2022-10-01T23:18:11.057Z,33.48
2022-10-01T23:20:46.020Z,33.43
2022-10-01T23:23:30.953Z,33.13
2022-10-01T23:26:18.527Z,33.11
2022-10-01T23:28:55.711Z,33.52
2022-10-01T23:31:31.396Z,33.71
2022-10-01T23:34:10.259Z,33.55
2022-10-01T23:36:46.837Z,33.57
2022-10-01T23:39:38.246Z,33.20
2022-10-01T23:42:09.915Z,32.32
2022-10-01T23:44:41.265Z,33.67
2022-10-01T23:47:13.494Z,33.96
2022-10-01T23:49:48.817Z,33.54
2022-10-01T23:52:22.487Z,33.72
2022-10-01T23:54:52.731Z,34.03
2022-10-01T23:57:24.458Z,33.85
2022-10-01T23:59:53.881Z,32.85
